Time;durP1;ratioP1;P1;durP2;ratioP2;P2;SDS_P1;SDS_P2;PMS_P1;PMS_P2;Temp;Humidity;BMP_temperature;BMP_pressure;BME280_temperature;BME280_humidity;BME280_pressure;Samples;Min_cycle;Max_cycle;Signal;HPM_P1;HPM_P2
2022/03/18 00:01:13;;;;;;;18.30;5.88;;;3.00;99.90;;;;;;5090033;28;20092;-83
2022/03/18 00:03:56;;;;;;;;;;;3.10;99.90;;;;;;5092412;28;20074;-82
2022/03/18 00:06:41;;;;;;;15.68;6.30;;;3.00;99.90;;;;;;5090866;28;20351;-82
2022/03/18 00:09:25;;;;;;;14.82;6.10;;;3.10;99.90;;;;;;5090133;28;20089;-82
2022/03/18 00:12:10;;;;;;;;;;;3.10;99.90;;;;;;5076182;28;20075;-82
2022/03/18 00:14:54;;;;;;;12.32;5.43;;;3.00;99.90;;;;;;5090779;28;19919;-82
2022/03/18 00:17:40;;;;;;;;;;;3.00;99.90;;;;;;5062557;28;20039;-82
2022/03/18 00:20:24;;;;;;;24.27;7.28;;;3.50;99.90;;;;;;5089941;28;20446;-82
2022/03/18 00:23:09;;;;;;;17.38;7.45;;;3.20;99.90;;;;;;5089885;28;20127;-83
2022/03/18 00:25:53;;;;;;;19.88;6.65;;;3.00;99.90;;;;;;5092265;28;20038;-82
2022/03/18 00:28:39;;;;;;;;;;;3.50;99.90;;;;;;5094608;28;20094;-82
2022/03/18 00:31:23;;;;;;;14.32;6.57;;;3.00;99.90;;;;;;5093481;28;19919;-82
2022/03/18 00:34:08;;;;;;;22.67;6.57;;;3.30;99.90;;;;;;5094711;28;20039;-86
2022/03/18 00:36:54;;;;;;;26.48;6.82;;;3.50;99.90;;;;;;5079910;28;20161;-82
2022/03/18 00:39:39;;;;;;;20.33;6.75;;;3.00;99.90;;;;;;5080061;28;20170;-82
2022/03/18 00:42:23;;;;;;;20.25;8.07;;;3.00;99.90;;;;;;5093163;28;20043;-82
2022/03/18 00:45:08;;;;;;;18.33;6.93;;;3.10;99.90;;;;;;5079398;28;20039;-86
2022/03/18 00:53:58;;;;;;;17.13;6.15;;;3.30;99.90;;;;;;5082130;28;20424;-82
2022/03/18 00:56:41;;;;;;;;;;;3.20;99.90;;;;;;5093976;28;20039;-82
2022/03/18 00:59:26;;;;;;;16.17;6.38;;;3.10;99.90;;;;;;5092962;28;19968;-83
2022/03/18 01:02:11;;;;;;;21.75;7.78;;;3.10;99.90;;;;;;5093123;28;20068;-86
2022/03/18 01:04:55;;;;;;;;;;;3.10;99.90;;;;;;5094683;28;20443;-82
2022/03/18 01:07:39;;;;;;;28.35;8.63;;;4.10;99.90;;;;;;5094405;28;19964;-82
2022/03/18 01:10:23;;;;;;;21.45;7.90;;;3.10;99.90;;;;;;5078525;28;20169;-82
2022/03/18 01:13:08;;;;;;;15.77;8.05;;;3.30;99.90;;;;;;5079075;28;20551;-82
2022/03/18 01:15:52;;;;;;;26.83;9.57;;;3.10;99.90;;;;;;5079094;28;20090;-82
2022/03/18 01:18:37;;;;;;;17.45;7.40;;;3.20;99.90;;;;;;5092766;28;20457;-82
2022/03/18 01:21:21;;;;;;;20.15;7.32;;;3.70;99.90;;;;;;5064019;28;20042;-82
2022/03/18 01:24:05;;;;;;;;;;;3.10;99.90;;;;;;5093400;28;20090;-82
2022/03/18 01:26:49;;;;;;;15.00;7.38;;;3.10;99.90;;;;;;5078715;28;19919;-82
2022/03/18 01:29:33;;;;;;;;;;;3.20;99.90;;;;;;5121732;27;20136;-83
2022/03/18 01:32:18;;;;;;;;;;;3.40;99.90;;;;;;5078613;28;20316;-83
2022/03/18 01:35:02;;;;;;;17.45;5.97;;;3.10;99.90;;;;;;5078506;28;19965;-82
2022/03/18 01:37:46;;;;;;;17.55;7.25;;;3.00;99.90;;;;;;5092844;28;20047;-82
2022/03/18 01:40:31;;;;;;;20.20;7.30;;;3.10;99.90;;;;;;5120968;27;20102;-83
2022/03/18 01:43:15;;;;;;;22.42;9.15;;;3.00;99.90;;;;;;5092398;28;20047;-86
2022/03/18 01:45:59;;;;;;;;;;;3.00;99.90;;;;;;5093005;28;20039;-82
2022/03/18 01:48:44;;;;;;;15.20;7.88;;;3.00;99.90;;;;;;5092789;28;19927;-82
2022/03/18 01:51:28;;;;;;;20.70;8.35;;;3.00;99.90;;;;;;5091901;28;20483;-83
2022/03/18 01:57:21;;;;;;;21.92;9.10;;;3.10;99.90;;;;;;5092599;28;20123;-83
2022/03/18 02:00:06;;;;;;;20.88;8.60;;;3.10;99.90;;;;;;5093293;28;20039;-82
2022/03/18 02:02:50;;;;;;;19.50;8.05;;;3.10;99.90;;;;;;5077685;28;20499;-83
2022/03/18 02:05:34;;;;;;;19.50;7.95;;;3.30;99.90;;;;;;5077415;28;20039;-83
2022/03/18 02:08:20;;;;;;;;;;;3.10;99.90;;;;;;5093502;28;20141;-85
2022/03/18 02:11:07;;;;;;;21.75;7.97;;;3.10;99.90;;;;;;5092098;28;19961;-84
2022/03/18 02:13:56;;;;;;;18.05;7.38;;;3.10;99.90;;;;;;5078213;28;20047;-82
2022/03/18 02:16:40;;;;;;;17.17;7.53;;;3.10;99.90;;;;;;5091419;28;20616;-82
2022/03/18 02:19:24;;;;;;;;;;;3.10;99.90;;;;;;5092822;28;20035;-83
2022/03/18 02:22:13;;;;;;;25.45;8.15;;;3.00;99.90;;;;;;5091929;28;20295;-82
2022/03/18 02:24:57;;;;;;;17.45;7.32;;;3.00;99.90;;;;;;5091937;28;20491;-82
2022/03/18 02:27:53;;;;;;;;;;;3.80;99.90;;;;;;5091618;28;20047;-83
2022/03/18 02:30:37;;;;;;;18.45;7.38;;;2.90;99.90;;;;;;5091200;28;19931;-82
2022/03/18 02:33:21;;;;;;;;;;;2.90;99.90;;;;;;5093066;28;20124;-85
2022/03/18 02:36:06;;;;;;;16.80;6.95;;;3.60;99.90;;;;;;5092714;28;20417;-83
2022/03/18 02:38:50;;;;;;;19.23;7.15;;;2.90;99.90;;;;;;5077412;28;20169;-82
2022/03/18 02:41:34;;;;;;;;;;;2.90;99.90;;;;;;5092436;28;20047;-82
2022/03/18 02:44:19;;;;;;;11.32;5.22;;;2.90;99.90;;;;;;5091623;28;19919;-83
2022/03/18 02:47:03;;;;;;;23.98;7.32;;;3.20;99.90;;;;;;5092754;28;20494;-82
2022/03/18 02:49:48;;;;;;;21.63;7.55;;;2.90;99.90;;;;;;5076279;28;20577;-83
2022/03/18 02:52:34;;;;;;;18.80;8.07;;;2.90;99.90;;;;;;5090786;28;20557;-83
2022/03/18 02:55:18;;;;;;;17.92;8.45;;;2.90;99.90;;;;;;5091439;28;20038;-84
2022/03/18 02:58:03;;;;;;;22.73;7.38;;;2.80;99.90;;;;;;5091532;28;20416;-83
2022/03/18 03:00:47;;;;;;;16.13;7.50;;;2.80;99.90;;;;;;5090615;28;20360;-83
2022/03/18 03:03:31;;;;;;;;;;;3.20;99.90;;;;;;5076532;28;20067;-83
2022/03/18 03:09:19;;;;;;;24.83;8.63;;;2.80;99.90;;;;;;5091340;28;20124;-84
2022/03/18 03:12:04;;;;;;;16.35;7.63;;;2.80;99.90;;;;;;5091324;28;20495;-83
2022/03/18 03:14:48;;;;;;;16.25;7.55;;;2.80;99.90;;;;;;5090565;28;20632;-83
2022/03/18 03:17:32;;;;;;;20.88;8.95;;;2.80;99.90;;;;;;5090578;28;20047;-83
2022/03/18 03:20:16;;;;;;;;;;;3.30;99.90;;;;;;5096685;28;20047;-84
2022/03/18 03:23:01;;;;;;;24.85;8.15;;;2.80;99.90;;;;;;5119919;28;19934;-83
2022/03/18 03:25:46;;;;;;;20.25;8.48;;;3.20;99.90;;;;;;5119406;28;20109;-83
2022/03/18 03:28:30;;;;;;;19.17;8.60;;;2.80;99.90;;;;;;5104956;28;20082;-86
2022/03/18 03:31:14;;;;;;;;;;;2.80;99.90;;;;;;5091490;28;20067;-83
2022/03/18 03:33:59;;;;;;;21.63;8.15;;;3.20;99.90;;;;;;5092131;28;19915;-83
2022/03/18 03:36:42;;;;;;;;;;;2.80;99.90;;;;;;5091895;28;20094;-83
2022/03/18 03:39:27;;;;;;;20.10;9.00;;;3.40;99.90;;;;;;5119945;28;19961;-82
2022/03/18 03:42:11;;;;;;;;;;;2.70;99.90;;;;;;5091417;28;20502;-84
2022/03/18 03:44:55;;;;;;;23.58;8.63;;;2.70;99.90;;;;;;5090526;28;20325;-83
2022/03/18 03:47:40;;;;;;;;;;;3.50;99.90;;;;;;5090748;28;20451;-84
2022/03/18 03:50:24;;;;;;;21.33;8.25;;;2.70;99.90;;;;;;5091877;28;19966;-83
2022/03/18 03:53:09;;;;;;;;;;;2.70;99.90;;;;;;5091289;28;20101;-83
2022/03/18 03:55:54;;;;;;;21.40;8.13;;;2.90;99.90;;;;;;5090269;28;19962;-83
2022/03/18 03:58:38;;;;;;;21.70;8.07;;;2.70;99.90;;;;;;5090162;28;20047;-84
2022/03/18 04:01:22;;;;;;;17.40;7.68;;;2.70;99.90;;;;;;5094430;28;20074;-83
2022/03/18 04:04:06;;;;;;;20.52;8.25;;;2.70;99.90;;;;;;5108934;28;20121;-83
2022/03/18 04:06:50;;;;;;;20.15;8.23;;;3.20;99.90;;;;;;5108457;28;20043;-83
2022/03/18 04:09:34;;;;;;;;;;;2.70;99.90;;;;;;5123747;27;20400;-86
2022/03/18 04:12:18;;;;;;;18.52;7.97;;;2.60;99.90;;;;;;5080136;28;20398;-83
2022/03/18 04:15:03;;;;;;;21.83;8.90;;;2.60;99.90;;;;;;5095379;28;20055;-83
2022/03/18 04:17:49;;;;;;;17.02;7.15;;;2.60;99.90;;;;;;5094790;28;20058;-83
2022/03/18 04:20:33;;;;;;;17.52;8.07;;;2.70;99.90;;;;;;5123336;27;20127;-83
2022/03/18 04:23:18;;;;;;;17.30;7.82;;;2.60;99.90;;;;;;5123244;27;20043;-83
2022/03/18 04:26:01;;;;;;;;;;;2.60;99.90;;;;;;5095330;28;20533;-83
2022/03/18 04:28:46;;;;;;;22.35;8.55;;;2.70;99.90;;;;;;5079314;28;20077;-83
2022/03/18 04:31:30;;;;;;;15.75;8.10;;;2.50;99.90;;;;;;5095129;28;20131;-83
2022/03/18 04:34:15;;;;;;;18.25;8.07;;;2.40;99.90;;;;;;5123040;27;20400;-83
2022/03/18 04:36:59;;;;;;;15.85;7.97;;;2.40;99.90;;;;;;5094421;28;20089;-83
2022/03/18 04:39:43;;;;;;;17.90;7.97;;;2.40;99.90;;;;;;5107854;28;20043;-83
2022/03/18 04:42:28;;;;;;;16.42;7.10;;;2.40;99.90;;;;;;5093750;28;20399;-83
2022/03/18 04:45:12;;;;;;;;;;;2.40;99.90;;;;;;5108660;28;20035;-83
2022/03/18 04:47:56;;;;;;;;;;;2.30;99.90;;;;;;5122643;27;19923;-83
2022/03/18 04:50:41;;;;;;;17.73;7.35;;;2.30;99.90;;;;;;5094527;28;20426;-86
2022/03/18 04:53:25;;;;;;;13.27;7.32;;;2.40;99.90;;;;;;5122525;27;20411;-83
2022/03/18 04:57:15;;;;;;;;;;;2.60;99.90;;;;;;5123004;27;20042;-83
2022/03/18 04:59:13;;;;;;;14.70;8.88;;;2.30;99.90;;;;;;5093627;28;19935;-83
2022/03/18 05:01:57;;;;;;;;;;;2.20;99.90;;;;;;5122250;27;20464;-83
2022/03/18 05:04:42;;;;;;;15.18;6.70;;;2.10;99.90;;;;;;5078585;28;20374;-87
2022/03/18 05:07:26;;;;;;;12.30;6.53;;;2.20;99.90;;;;;;5094257;28;20189;-83
2022/03/18 05:10:10;;;;;;;;;;;2.20;99.90;;;;;;5122729;27;20165;-83
2022/03/18 05:12:55;;;;;;;14.63;6.85;;;2.40;99.90;;;;;;5078259;28;19919;-83
2022/03/18 05:15:41;;;;;;;18.70;8.30;;;2.50;99.90;;;;;;5122117;27;20035;-83
2022/03/18 05:18:25;;;;;;;19.27;7.65;;;2.10;99.90;;;;;;5122162;27;20039;-83
2022/03/18 05:21:09;;;;;;;;;;;2.10;99.90;;;;;;5094490;28;20094;-83
2022/03/18 05:23:54;;;;;;;15.77;7.90;;;2.00;99.90;;;;;;5093730;28;20054;-83
2022/03/18 05:26:40;;;;;;;21.55;7.90;;;2.80;99.90;;;;;;5093077;28;20174;-82
2022/03/18 05:29:27;;;;;;;17.35;7.82;;;1.90;99.90;;;;;;5121961;27;20142;-83
2022/03/18 05:32:12;;;;;;;19.33;8.18;;;2.90;99.90;;;;;;5107886;27;20139;-83
2022/03/18 05:34:56;;;;;;;;;;;1.90;99.90;;;;;;5121716;27;20043;-83
2022/03/18 05:37:40;;;;;;;15.15;7.95;;;1.90;99.90;;;;;;5092792;28;19918;-83
2022/03/18 05:40:24;;;;;;;18.13;9.47;;;2.40;99.90;;;;;;5092870;28;20101;-83
2022/03/18 05:43:09;;;;;;;15.23;8.50;;;1.90;99.90;;;;;;5092091;28;20083;-83
2022/03/18 05:45:53;;;;;;;19.00;8.57;;;1.90;99.90;;;;;;5106698;28;20396;-83
2022/03/18 05:48:38;;;;;;;19.80;9.20;;;1.90;99.90;;;;;;5092589;28;20129;-83
2022/03/18 05:51:22;;;;;;;17.17;7.10;;;1.90;99.90;;;;;;5092456;28;20039;-83
2022/03/18 05:54:07;;;;;;;16.00;8.30;;;1.90;99.90;;;;;;5106369;28;20116;-83
2022/03/18 05:56:54;;;;;;;;;;;2.60;99.90;;;;;;5106752;28;20075;-84
2022/03/18 05:59:38;;;;;;;17.50;7.38;;;1.90;99.90;;;;;;5121316;27;19962;-83
2022/03/18 06:02:23;;;;;;;15.75;7.57;;;1.80;99.90;;;;;;5106693;27;20494;-83
2022/03/18 06:05:09;;;;;;;15.50;7.47;;;1.90;99.90;;;;;;5120090;27;20050;-83
2022/03/18 06:11:48;;;;;;;20.70;8.93;;;1.90;99.90;;;;;;5107006;27;20416;-83
2022/03/18 06:14:01;;;;;;;17.95;9.40;;;1.90;99.90;;;;;;5112157;28;20047;-83
2022/03/18 06:16:47;;;;;;;18.67;8.93;;;1.90;99.90;;;;;;5112324;28;20048;-83
2022/03/18 06:19:32;;;;;;;17.63;8.98;;;2.70;99.90;;;;;;5113475;28;20047;-83
2022/03/18 06:22:16;;;;;;;16.05;9.10;;;1.90;99.90;;;;;;5097442;28;20132;-83
2022/03/18 06:25:00;;;;;;;;;;;3.00;99.90;;;;;;5097693;28;20039;-83
2022/03/18 06:27:44;;;;;;;18.70;9.43;;;2.30;99.90;;;;;;5112414;28;19973;-83
2022/03/18 06:30:28;;;;;;;;;;;2.00;99.90;;;;;;5094093;28;20105;-84
2022/03/18 06:33:13;;;;;;;22.80;10.65;;;2.00;99.90;;;;;;5122364;27;19915;-83
2022/03/18 06:35:57;;;;;;;18.40;10.37;;;2.00;99.90;;;;;;5118902;27;20549;-84
2022/03/18 06:38:42;;;;;;;19.15;10.93;;;2.10;99.90;;;;;;5103473;28;20047;-83
2022/03/18 06:41:26;;;;;;;20.45;10.45;;;2.70;99.90;;;;;;5105434;27;20541;-83
2022/03/18 06:44:11;;;;;;;21.23;11.50;;;2.50;99.90;;;;;;5106082;28;20391;-84
2022/03/18 06:46:55;;;;;;;31.00;12.85;;;2.60;99.90;;;;;;5094993;28;20459;-86
2022/03/18 06:49:39;;;;;;;;;;;2.30;99.90;;;;;;5091833;28;20042;-83
2022/03/18 06:52:24;;;;;;;22.33;11.77;;;2.40;99.90;;;;;;5092000;28;19919;-84
2022/03/18 06:55:08;;;;;;;22.90;12.65;;;3.10;99.90;;;;;;5105787;28;20046;-84
2022/03/18 06:57:53;;;;;;;23.48;12.75;;;2.50;99.90;;;;;;5111699;28;20043;-82
2022/03/18 07:00:39;;;;;;;25.90;13.27;;;2.60;99.90;;;;;;5092393;28;20039;-83
2022/03/18 07:03:23;;;;;;;25.15;14.27;;;2.70;99.90;;;;;;5076999;28;20054;-84
2022/03/18 07:06:07;;;;;;;32.80;16.38;;;2.80;99.90;;;;;;5119690;27;20101;-84
2022/03/18 07:08:51;;;;;;;;;;;3.50;99.90;;;;;;5091633;28;20039;-83
2022/03/18 07:11:35;;;;;;;24.45;14.70;;;3.10;99.90;;;;;;5105245;28;19920;-83
2022/03/18 07:14:20;;;;;;;28.73;16.20;;;3.20;99.90;;;;;;5110921;28;20042;-85
2022/03/18 07:20:08;;;;;;;25.42;16.42;;;3.50;99.90;;;;;;5112122;28;20291;-85
2022/03/18 07:23:06;;;;;;;27.38;16.10;;;3.70;99.90;;;;;;5106395;28;20120;-84
2022/03/18 07:25:51;;;;;;;27.50;16.00;;;3.90;99.90;;;;;;5102592;28;20086;-84
2022/03/18 07:28:35;;;;;;;28.40;16.42;;;4.00;99.90;;;;;;5092075;28;20085;-83
2022/03/18 07:31:19;;;;;;;;;;;4.30;99.90;;;;;;5091125;28;20151;-84
2022/03/18 07:34:03;;;;;;;25.83;15.00;;;5.00;99.90;;;;;;5120530;28;19966;-83
2022/03/18 07:36:48;;;;;;;28.02;18.35;;;6.20;99.90;;;;;;5096700;28;20042;-84
2022/03/18 07:39:33;;;;;;;18.60;13.70;;;7.60;99.90;;;;;;5095455;28;20035;-86
2022/03/18 07:42:18;;;;;;;;;;;9.10;99.90;;;;;;5106536;28;20097;-84
2022/03/18 07:45:02;;;;;;;22.10;12.85;;;10.20;99.90;;;;;;5098507;28;19919;-85
2022/03/18 07:47:49;;;;;;;;;;;11.10;99.90;;;;;;5117037;28;20501;-86
2022/03/18 07:50:36;;;;;;;18.30;11.70;;;11.90;99.90;;;;;;5116358;28;19914;-84
2022/03/18 07:53:21;;;;;;;19.45;12.38;;;12.80;99.90;;;;;;5114698;28;20233;-85
2022/03/18 07:56:05;;;;;;;20.05;11.15;;;13.40;99.90;;;;;;5114757;28;20112;-86
2022/03/18 07:58:49;;;;;;;21.50;11.52;;;14.10;99.90;;;;;;5129386;27;20038;-85
2022/03/18 08:01:35;;;;;;;25.90;12.45;;;14.40;99.90;;;;;;5129051;27;20038;-85
2022/03/18 08:04:19;;;;;;;27.90;11.43;;;14.40;99.90;;;;;;5108103;28;20540;-86
2022/03/18 08:07:04;;;;;;;17.67;10.82;;;14.20;99.90;;;;;;5112471;28;20085;-84
2022/03/18 08:09:48;;;;;;;17.98;11.35;;;13.80;99.90;;;;;;5100072;28;20039;-89
2022/03/18 08:12:32;;;;;;;;;;;13.00;99.90;;;;;;5116611;28;20039;-85
2022/03/18 08:15:18;;;;;;;;;;;12.00;99.90;;;;;;5100597;28;20427;-85
2022/03/18 08:18:03;;;;;;;17.05;10.93;;;11.30;99.90;;;;;;5116009;28;19953;-85
2022/03/18 08:20:51;;;;;;;22.48;11.32;;;10.70;99.90;;;;;;5116122;28;20038;-84
2022/03/18 08:23:36;;;;;;;18.70;11.55;;;10.60;99.90;;;;;;5115827;28;20090;-85
2022/03/18 08:26:20;;;;;;;19.92;11.02;;;10.50;99.90;;;;;;5114120;28;20046;-85
2022/03/18 08:29:05;;;;;;;20.17;10.82;;;10.80;99.90;;;;;;5114717;28;20070;-85
2022/03/18 08:31:49;;;;;;;20.23;12.77;;;11.30;99.90;;;;;;5129310;27;20046;-84
2022/03/18 08:34:33;;;;;;;22.83;11.93;;;11.90;99.90;;;;;;5114477;28;20120;-85
2022/03/18 08:37:56;;;;;;;19.25;11.60;;;12.30;99.90;;;;;;5114945;28;20078;-85
2022/03/18 08:40:34;;;;;;;15.68;9.95;;;12.40;99.90;;;;;;5114908;28;20068;-84
2022/03/18 08:43:18;;;;;;;15.38;9.73;;;12.30;99.90;;;;;;5113760;28;20494;-85
2022/03/18 08:46:03;;;;;;;21.25;9.80;;;12.10;99.90;;;;;;5113518;28;20043;-84
2022/03/18 08:48:48;;;;;;;23.70;12.32;;;11.90;99.90;;;;;;5114223;28;20104;-84
2022/03/18 08:51:32;;;;;;;17.08;8.98;;;11.90;99.90;;;;;;5113564;28;20042;-84
2022/03/18 08:54:21;;;;;;;21.83;9.70;;;12.20;99.90;;;;;;5099163;28;20050;-84
2022/03/18 08:57:05;;;;;;;16.35;8.60;;;12.30;99.90;;;;;;5100412;28;20088;-84
2022/03/18 08:59:49;;;;;;;22.92;9.48;;;12.40;99.90;;;;;;5113916;28;20445;-84
2022/03/18 09:02:38;;;;;;;20.15;8.95;;;12.30;99.90;;;;;;5113137;28;20050;-84
2022/03/18 09:05:22;;;;;;;20.55;10.02;;;12.40;99.90;;;;;;5114573;28;20054;-85
2022/03/18 09:08:07;;;;;;;23.30;9.45;;;12.70;99.90;;;;;;5114004;28;20084;-84
2022/03/18 09:10:51;;;;;;;22.30;8.60;;;13.00;99.90;;;;;;5114846;28;20077;-84
2022/03/18 09:13:36;;;;;;;;;;;13.10;99.90;;;;;;5113777;28;20085;-84
2022/03/18 09:16:20;;;;;;;16.90;8.20;;;13.00;99.90;;;;;;5114197;28;19914;-84
2022/03/18 09:19:05;;;;;;;17.08;9.07;;;12.80;99.90;;;;;;5114785;28;20043;-84
2022/03/18 09:21:50;;;;;;;21.23;8.95;;;12.60;99.90;;;;;;5113669;28;20066;-85
2022/03/18 09:24:36;;;;;;;20.95;8.43;;;12.60;99.90;;;;;;5098491;28;20047;-84
2022/03/18 09:27:20;;;;;;;14.30;8.43;;;12.70;99.90;;;;;;5114012;28;20038;-85
2022/03/18 09:30:05;;;;;;;13.98;7.35;;;12.90;99.90;;;;;;5099103;28;20119;-84
2022/03/18 09:32:49;;;;;;;19.17;9.70;;;13.10;99.90;;;;;;5114382;28;20119;-84
2022/03/18 09:35:33;;;;;;;18.75;8.40;;;13.40;99.90;;;;;;5098286;28;20042;-82
2022/03/18 09:38:18;;;;;;;19.58;7.53;;;13.40;99.90;;;;;;5098277;28;20109;-83
2022/03/18 09:41:03;;;;;;;19.83;8.57;;;13.40;99.90;;;;;;5114338;28;20034;-82
2022/03/18 09:43:48;;;;;;;17.33;7.60;;;13.50;99.90;;;;;;5112980;28;20157;-82
2022/03/18 09:46:33;;;;;;;25.92;9.35;;;13.30;99.90;;;;;;5112477;28;20039;-82
2022/03/18 09:49:22;;;;;;;19.02;8.35;;;13.20;99.90;;;;;;5114015;28;20119;-84
2022/03/18 09:52:06;;;;;;;17.48;7.85;;;;;;;;;;5099242;28;20078;-82
2022/03/18 09:54:51;;;;;;;19.05;7.63;;;13.50;99.90;;;;;;5113189;28;20035;-82
2022/03/18 09:57:36;;;;;;;18.42;8.07;;;13.50;99.90;;;;;;5083870;28;20043;-82
2022/03/18 10:00:20;;;;;;;18.65;7.70;;;;;;;;;;5113731;28;20042;-84
2022/03/18 10:03:09;;;;;;;17.63;7.45;;;14.00;99.90;;;;;;5112828;28;20100;-82
2022/03/18 10:05:59;;;;;;;23.27;7.93;;;13.80;99.90;;;;;;5113511;28;20496;-82
2022/03/18 10:08:44;;;;;;;15.10;6.82;;;13.90;99.90;;;;;;5113147;28;20122;-82
2022/03/18 10:11:31;;;;;;;16.42;7.50;;;13.90;99.90;;;;;;5113091;28;20096;-83
2022/03/18 10:14:24;;;;;;;16.13;7.20;;;13.90;99.90;;;;;;5113629;28;20084;-83
2022/03/18 10:17:09;;;;;;;16.53;8.03;;;14.10;99.90;;;;;;5112657;28;20147;-82
2022/03/18 10:19:53;;;;;;;17.58;6.90;;;14.20;99.90;;;;;;5112588;28;20402;-82
2022/03/18 10:22:37;;;;;;;15.82;7.15;;;14.40;99.90;;;;;;5111705;28;20051;-82
2022/03/18 10:25:37;;;;;;;15.60;6.88;;;14.40;99.90;;;;;;5111940;28;20111;-84
2022/03/18 10:28:47;;;;;;;16.42;7.60;;;14.60;99.90;;;;;;5113050;28;20093;-83
2022/03/18 10:31:32;;;;;;;19.75;7.25;;;14.60;99.90;;;;;;5112577;28;20100;-83
2022/03/18 10:37:21;;;;;;;12.75;7.03;;;14.70;99.90;;;;;;5113142;28;20047;-82
2022/03/18 10:40:05;;;;;;;18.52;6.40;;;14.80;99.90;;;;;;5113014;28;20054;-82
2022/03/18 10:42:57;;;;;;;14.55;6.05;;;14.90;99.90;;;;;;5097080;28;20054;-83
2022/03/18 10:45:59;;;;;;;15.52;6.97;;;14.90;99.90;;;;;;5111810;28;20062;-83
2022/03/18 10:49:03;;;;;;;13.93;6.63;;;15.00;99.90;;;;;;5111268;28;20078;-82
2022/03/18 10:51:48;;;;;;;14.02;6.78;;;15.10;99.90;;;;;;5111291;28;20402;-82
2022/03/18 10:54:34;;;;;;;15.50;6.50;;;15.10;99.90;;;;;;5111246;28;20038;-83
2022/03/18 10:57:18;;;;;;;14.27;6.65;;;15.20;99.90;;;;;;5107952;28;20040;-82
2022/03/18 11:00:03;;;;;;;18.95;7.25;;;15.30;99.90;;;;;;5097393;28;20038;-82
2022/03/18 11:02:52;;;;;;;16.85;6.47;;;15.40;99.90;;;;;;5109050;28;20622;-82
2022/03/18 11:05:40;;;;;;;19.73;7.43;;;15.60;99.90;;;;;;5112361;28;20510;-82
2022/03/18 11:08:31;;;;;;;14.30;6.53;;;15.60;99.90;;;;;;5112545;28;20119;-82
2022/03/18 11:11:20;;;;;;;14.32;6.65;;;15.60;99.90;;;;;;5112626;28;20108;-82
2022/03/18 11:14:10;;;;;;;18.02;7.35;;;15.70;99.90;;;;;;5111702;28;20035;-82
2022/03/18 11:16:54;;;;;;;11.98;6.30;;;15.70;99.90;;;;;;5112463;28;20030;-82
2022/03/18 11:19:39;;;;;;;18.17;6.88;;;15.80;99.90;;;;;;5110949;28;20038;-82
2022/03/18 11:22:25;;;;;;;13.55;6.95;;;15.70;99.90;;;;;;5097313;28;20131;-82
2022/03/18 11:25:13;;;;;;;17.13;7.55;;;15.80;99.90;;;;;;5112507;28;20038;-83
2022/03/18 11:27:57;;;;;;;13.00;6.10;;;15.90;99.90;;;;;;5111677;28;20093;-81
2022/03/18 11:30:42;;;;;;;12.70;6.20;;;15.80;99.90;;;;;;5110879;28;20072;-81
2022/03/18 11:33:28;;;;;;;13.63;6.07;;;15.70;99.90;;;;;;5112504;28;20461;-81
2022/03/18 11:36:14;;;;;;;13.70;6.43;;;15.70;99.90;;;;;;5111330;28;20039;-81
2022/03/18 11:39:02;;;;;;;13.52;6.28;;;15.80;99.90;;;;;;5111513;28;20070;-81
2022/03/18 11:41:52;;;;;;;15.95;7.30;;;15.90;99.90;;;;;;5111629;28;20088;-81
2022/03/18 11:44:37;;;;;;;15.60;5.82;;;16.10;99.90;;;;;;5111861;28;20038;-81
2022/03/18 11:47:33;;;;;;;13.00;6.60;;;16.20;99.90;;;;;;5111321;28;20062;-81
2022/03/18 11:50:57;;;;;;;14.43;6.32;;;16.30;99.90;;;;;;5112374;28;20030;-81
2022/03/18 11:53:47;;;;;;;13.88;6.03;;;16.40;99.90;;;;;;5048727;28;20074;-80
2022/03/18 11:56:51;;;;;;;15.25;5.55;;;16.00;99.30;;;;;;5035474;28;20111;-82
2022/03/18 11:59:38;;;;;;;16.67;5.28;;;15.70;99.90;;;;;;5110694;28;20065;-82
2022/03/18 12:02:35;;;;;;;11.95;5.97;;;15.50;99.90;;;;;;5112221;28;20453;-80
2022/03/18 12:05:20;;;;;;;12.27;5.05;;;15.70;99.90;;;;;;5111979;28;20054;-80
2022/03/18 12:08:05;;;;;;;22.33;5.80;;;15.90;99.90;;;;;;5111240;28;20077;-80
2022/03/18 12:10:49;;;;;;;15.57;5.22;;;16.20;99.90;;;;;;5110434;28;20501;-80
2022/03/18 12:13:33;;;;;;;11.75;5.00;;;16.20;99.90;;;;;;5110913;28;20046;-81
2022/03/18 12:16:24;;;;;;;14.88;5.88;;;16.30;99.60;;;;;;5111615;28;20084;-80
2022/03/18 12:19:12;;;;;;;14.50;5.28;;;16.40;99.10;;;;;;5110992;28;20034;-82
2022/03/18 12:22:00;;;;;;;16.30;5.50;;;16.30;99.10;;;;;;5138832;27;20216;-82
2022/03/18 12:24:46;;;;;;;17.55;5.07;;;16.20;98.80;;;;;;5113960;28;20412;-81
2022/03/18 12:27:40;;;;;;;15.95;4.72;;;16.10;99.00;;;;;;5112831;28;20077;-81
2022/03/18 12:30:29;;;;;;;12.85;4.10;;;16.10;98.30;;;;;;5142424;27;20470;-81
2022/03/18 12:33:13;;;;;;;10.63;3.85;;;16.30;97.80;;;;;;5115654;28;20046;-80
2022/03/18 12:35:59;;;;;;;13.90;4.30;;;16.40;97.00;;;;;;5114804;28;20043;-81
2022/03/18 12:38:46;;;;;;;11.00;4.03;;;16.50;97.00;;;;;;5113810;28;20061;-81
2022/03/18 12:41:30;;;;;;;13.15;3.00;;;16.50;96.40;;;;;;5115402;28;20096;-81
2022/03/18 12:44:29;;;;;;;13.63;3.53;;;16.50;95.70;;;;;;5114429;28;20050;-81
2022/03/18 12:47:15;;;;;;;12.35;4.10;;;16.50;95.00;;;;;;5100046;28;20043;-81
2022/03/18 12:50:00;;;;;;;10.50;4.30;;;16.60;95.50;;;;;;5114629;28;20192;-80
2022/03/18 12:52:44;;;;;;;14.65;5.03;;;16.60;94.40;;;;;;5113415;28;20081;-81
2022/03/18 12:55:29;;;;;;;12.65;4.68;;;16.50;94.80;;;;;;5114157;28;20031;-81
2022/03/18 12:58:13;;;;;;;12.75;5.20;;;16.70;95.10;;;;;;5115218;28;20119;-80
2022/03/18 13:01:00;;;;;;;13.93;4.97;;;16.80;94.80;;;;;;5113365;28;20121;-81
2022/03/18 13:03:50;;;;;;;12.30;4.80;;;16.90;94.90;;;;;;5114204;28;20108;-81
2022/03/18 13:06:37;;;;;;;9.77;4.68;;;17.00;95.50;;;;;;5113929;28;20449;-80
2022/03/18 13:09:21;;;;;;;11.25;4.28;;;17.10;94.90;;;;;;5114833;28;20042;-80
2022/03/18 13:12:25;;;;;;;13.55;4.32;;;17.10;94.20;;;;;;5113281;28;20046;-81
2022/03/18 13:15:15;;;;;;;10.82;4.38;;;16.90;94.10;;;;;;5113714;28;20119;-80
2022/03/18 13:18:12;;;;;;;12.57;4.57;;;16.80;94.40;;;;;;5114545;28;20084;-81
2022/03/18 13:21:04;;;;;;;18.77;4.47;;;16.70;93.60;;;;;;5114040;28;20035;-81
2022/03/18 13:23:52;;;;;;;10.77;3.75;;;16.50;92.60;;;;;;5113912;28;20047;-81
2022/03/18 13:26:37;;;;;;;13.40;5.03;;;16.50;93.90;;;;;;5114631;28;20037;-81
2022/03/18 13:32:50;;;;;;;12.95;4.93;;;16.60;93.90;;;;;;5099216;28;20054;-82
2022/03/18 13:35:44;;;;;;;12.80;4.60;;;16.60;92.90;;;;;;5114267;28;20050;-81
2022/03/18 13:38:30;;;;;;;11.65;4.43;;;16.30;93.50;;;;;;5114550;28;20038;-81
2022/03/18 13:41:15;;;;;;;11.45;4.05;;;16.30;93.80;;;;;;5114209;28;20106;-81
2022/03/18 13:43:59;;;;;;;11.20;3.80;;;16.40;93.40;;;;;;5113537;28;20092;-81
2022/03/18 13:46:58;;;;;;;12.32;4.28;;;16.60;93.40;;;;;;5113025;28;20074;-81
2022/03/18 13:49:56;;;;;;;13.68;4.32;;;16.70;92.60;;;;;;5114378;28;20039;-81
2022/03/18 13:52:40;;;;;;;14.63;4.00;;;16.60;91.90;;;;;;5113897;28;20066;-81
2022/03/18 13:55:34;;;;;;;10.73;3.92;;;16.50;92.10;;;;;;5112925;28;20038;-80
2022/03/18 13:58:31;;;;;;;13.60;4.72;;;16.40;92.60;;;;;;5113029;28;20072;-81
2022/03/18 14:01:18;;;;;;;13.00;3.72;;;16.50;91.60;;;;;;5113927;28;20030;-81
2022/03/18 14:04:03;;;;;;;12.18;3.83;;;16.50;92.50;;;;;;5111866;28;20089;-81
2022/03/18 14:07:01;;;;;;;11.60;3.47;;;16.50;92.60;;;;;;5112651;28;20038;-82
2022/03/18 14:10:01;;;;;;;15.73;4.07;;;16.60;91.80;;;;;;5112721;28;20549;-80
2022/03/18 14:13:01;;;;;;;12.20;2.97;;;16.50;91.80;;;;;;5112493;28;20119;-80
2022/03/18 14:15:47;;;;;;;12.20;4.45;;;16.50;92.30;;;;;;5113570;28;20035;-81
2022/03/18 14:18:41;;;;;;;12.80;3.28;;;16.60;92.60;;;;;;5098359;28;20043;-81
2022/03/18 14:21:25;;;;;;;11.90;3.38;;;16.70;92.10;;;;;;5113466;28;20034;-80
2022/03/18 14:24:09;;;;;;;14.35;4.10;;;16.70;91.90;;;;;;5111761;28;20104;-80
2022/03/18 14:26:54;;;;;;;14.15;3.47;;;16.70;92.30;;;;;;5111824;28;20046;-81
2022/03/18 14:29:39;;;;;;;13.73;3.97;;;16.50;92.20;;;;;;5097897;28;20038;-81
2022/03/18 14:32:23;;;;;;;11.30;3.58;;;16.40;92.10;;;;;;5112055;28;20119;-80
2022/03/18 14:35:08;;;;;;;12.05;3.70;;;16.40;92.20;;;;;;5097154;28;20042;-80
2022/03/18 14:37:53;;;;;;;13.10;3.30;;;16.30;91.60;;;;;;5083114;28;20562;-83
2022/03/18 14:40:37;;;;;;;9.98;3.28;;;16.10;91.60;;;;;;5111903;28;20043;-80
2022/03/18 14:43:22;;;;;;;14.52;4.13;;;16.00;92.00;;;;;;5097212;28;20135;-80
2022/03/18 14:46:08;;;;;;;11.57;4.30;;;16.00;92.30;;;;;;5112490;28;20165;-80
2022/03/18 14:48:52;;;;;;;12.73;4.55;;;16.00;92.50;;;;;;5112871;28;20043;-80
2022/03/18 14:51:37;;;;;;;11.25;4.22;;;16.00;93.00;;;;;;5111907;28;20088;-81
2022/03/18 14:56:17;;;;;;;11.07;3.97;;;15.90;93.10;;;;;;5097622;28;20047;-80
2022/03/18 14:57:25;;;;;;;;;;;15.90;93.20;;;;;;5113318;28;20485;-81